createdAt,value
2023-02-12T00:01:24.708Z,33.23
2023-02-12T00:03:51.866Z,32.55
2023-02-12T00:06:18.945Z,34.04
2023-02-12T00:08:50.854Z,34.20
2023-02-12T00:11:19.411Z,33.27
2023-02-12T00:13:46.678Z,33.76
2023-02-12T00:16:16.049Z,33.69
2023-02-12T00:18:42.880Z,34.71
2023-02-12T00:21:09.664Z,33.71
2023-02-12T00:23:36.934Z,34.47
2023-02-12T00:26:10.615Z,34.13
2023-02-12T00:28:37.780Z,33.15
2023-02-12T00:31:16.020Z,34.24
2023-02-12T00:33:48.279Z,34.28
2023-02-12T00:36:16.878Z,34.65
2023-02-12T00:38:44.591Z,34.84
2023-02-12T00:41:11.422Z,34.54
2023-02-12T00:43:38.556Z,34.98
2023-02-12T00:46:10.975Z,34.40
2023-02-12T00:48:38.052Z,34.45
2023-02-12T00:51:05.255Z,34.92
2023-02-12T00:53:32.621Z,33.92
2023-02-12T00:55:59.810Z,33.70
2023-02-12T00:58:26.521Z,33.47
2023-02-12T01:00:53.525Z,32.87
2023-02-12T01:03:20.885Z,33.02
2023-02-12T01:05:48.817Z,32.87
2023-02-12T01:08:16.765Z,32.54
2023-02-12T01:10:43.950Z,33.26
2023-02-12T01:13:17.040Z,33.78
2023-02-12T01:15:44.094Z,33.89
2023-02-12T01:18:11.193Z,33.12
2023-02-12T01:20:40.113Z,33.74
2023-02-12T01:23:07.245Z,33.42
2023-02-12T01:25:34.361Z,33.32
2023-02-12T01:28:01.502Z,33.77
2023-02-12T01:30:34.505Z,34.06
2023-02-12T01:33:01.573Z,33.53
2023-02-12T01:35:28.533Z,32.90
2023-02-12T01:37:58.115Z,33.95
2023-02-12T01:40:30.613Z,34.21
2023-02-12T01:43:01.059Z,34.78
2023-02-12T01:45:36.895Z,33.79
2023-02-12T01:48:04.037Z,33.99
2023-02-12T01:50:31.335Z,34.10
2023-02-12T01:53:01.019Z,34.78
2023-02-12T01:55:31.594Z,34.82
2023-02-12T01:57:58.535Z,34.88
2023-02-12T02:00:30.894Z,34.70
2023-02-12T02:02:58.770Z,35.09
2023-02-12T02:05:34.150Z,35.68
2023-02-12T02:08:10.393Z,35.81
2023-02-12T02:10:37.499Z,35.92
2023-02-12T02:13:04.579Z,36.40
2023-02-12T02:15:36.439Z,36.86
2023-02-12T02:18:07.854Z,36.74
2023-02-12T02:20:43.978Z,36.64
2023-02-12T02:23:37.851Z,37.09
2023-02-12T02:26:37.721Z,39.53
2023-02-12T02:29:30.117Z,38.04
2023-02-12T02:32:20.877Z,36.79
2023-02-12T02:34:58.616Z,35.84
2023-02-12T02:37:49.251Z,36.45
2023-02-12T02:40:27.359Z,35.91
2023-02-12T02:43:15.946Z,35.45
2023-02-12T02:45:50.014Z,34.54
2023-02-12T02:48:24.654Z,35.10
2023-02-12T02:50:55.785Z,35.13
2023-02-12T02:53:45.990Z,35.16
2023-02-12T02:56:20.425Z,36.17
2023-02-12T02:58:59.385Z,36.52
2023-02-12T03:01:38.391Z,35.66
2023-02-12T03:04:10.185Z,36.18
2023-02-12T03:07:10.514Z,36.47
2023-02-12T03:09:40.739Z,36.18
2023-02-12T03:12:14.400Z,35.55
2023-02-12T03:14:44.896Z,36.33
2023-02-12T03:17:26.487Z,36.31
2023-02-12T03:19:59.007Z,37.67
2023-02-12T03:22:29.072Z,37.18
2023-02-12T03:25:18.594Z,38.04
2023-02-12T03:28:09.892Z,37.60
2023-02-12T03:31:11.212Z,38.97
2023-02-12T03:34:09.754Z,38.71
2023-02-12T03:36:55.634Z,42.46
2023-02-12T03:39:37.158Z,39.27
2023-02-12T03:42:42.294Z,38.38
2023-02-12T03:45:55.849Z,37.94
2023-02-12T03:48:23.813Z,38.51
2023-02-12T03:51:10.185Z,38.70
2023-02-12T03:53:42.871Z,39.40
2023-02-12T03:56:47.511Z,39.57
2023-02-12T03:59:14.997Z,39.31
2023-02-12T04:01:46.862Z,38.54
2023-02-12T04:04:14.634Z,38.37
2023-02-12T04:06:41.585Z,38.78
2023-02-12T04:09:09.666Z,38.94
2023-02-12T04:12:15.837Z,39.08
2023-02-12T04:15:33.720Z,38.76
2023-02-12T04:18:10.362Z,38.81
2023-02-12T04:21:31.545Z,39.25
2023-02-12T04:24:30.122Z,40.30
2023-02-12T04:27:31.008Z,40.32
2023-02-12T04:30:15.799Z,40.47
2023-02-12T04:32:48.778Z,41.10
2023-02-12T04:35:48.818Z,40.50
2023-02-12T04:38:40.548Z,40.59
2023-02-12T04:41:07.771Z,41.52
2023-02-12T04:43:37.538Z,40.78
2023-02-12T04:46:05.918Z,41.79
2023-02-12T04:48:33.033Z,41.67
2023-02-12T04:51:00.070Z,41.55
2023-02-12T04:53:27.555Z,41.66
2023-02-12T04:55:54.893Z,41.34
2023-02-12T04:58:22.197Z,42.10
2023-02-12T05:00:53.976Z,42.08
2023-02-12T05:03:23.550Z,42.32
2023-02-12T05:05:53.390Z,42.05
2023-02-12T05:08:20.494Z,42.36
2023-02-12T05:10:47.246Z,42.72
2023-02-12T05:13:16.723Z,42.92
2023-02-12T05:15:43.585Z,42.26
2023-02-12T05:18:11.158Z,42.77
2023-02-12T05:20:39.076Z,42.34
2023-02-12T05:23:06.757Z,42.63
2023-02-12T05:25:33.810Z,43.16
2023-02-12T05:28:00.605Z,43.46
2023-02-12T05:30:28.959Z,44.48
2023-02-12T05:32:56.250Z,45.53
2023-02-12T05:35:25.763Z,44.53
2023-02-12T05:37:52.874Z,45.04
2023-02-12T05:40:20.118Z,45.62
2023-02-12T05:43:11.383Z,46.04
2023-02-12T05:45:38.499Z,47.80
2023-02-12T05:48:10.543Z,47.73
2023-02-12T05:50:38.502Z,46.84
2023-02-12T05:53:05.554Z,48.85
2023-02-12T05:55:32.587Z,48.31
2023-02-12T05:58:02.160Z,47.55
2023-02-12T06:00:32.051Z,47.50
2023-02-12T06:02:59.230Z,48.11
2023-02-12T06:05:26.407Z,47.38
2023-02-12T06:07:53.770Z,47.50
2023-02-12T06:10:21.246Z,45.82
2023-02-12T06:12:53.670Z,47.10
2023-02-12T06:15:25.595Z,47.12
2023-02-12T06:17:52.557Z,46.63
2023-02-12T06:20:19.464Z,46.27
2023-02-12T06:22:46.537Z,48.17
2023-02-12T06:25:13.658Z,47.53
2023-02-12T06:27:40.686Z,47.63
2023-02-12T06:30:09.442Z,47.75
2023-02-12T06:32:36.841Z,47.79
2023-02-12T06:35:04.112Z,47.58
2023-02-12T06:37:32.407Z,47.83
2023-02-12T06:39:59.462Z,48.43
2023-02-12T06:42:29.211Z,48.92
2023-02-12T06:44:55.980Z,48.42
2023-02-12T06:47:23.112Z,49.09
2023-02-12T06:49:50.123Z,48.57
2023-02-12T06:52:17.175Z,52.00
2023-02-12T06:54:44.260Z,48.26
2023-02-12T06:57:15.916Z,47.34
2023-02-12T06:59:44.135Z,47.43
2023-02-12T07:02:11.883Z,47.61
2023-02-12T07:04:40.690Z,46.70
2023-02-12T07:07:07.697Z,46.51
2023-02-12T07:09:34.808Z,45.66
2023-02-12T07:12:01.935Z,45.57
2023-02-12T07:14:28.631Z,44.89
2023-02-12T07:16:57.292Z,45.59
2023-02-12T07:19:24.814Z,45.68
2023-02-12T07:21:54.303Z,45.34
2023-02-12T07:24:22.047Z,45.96
2023-02-12T07:26:52.446Z,45.84
2023-02-12T07:29:19.134Z,45.89
2023-02-12T07:31:47.267Z,46.06
2023-02-12T07:34:14.084Z,47.06
2023-02-12T07:36:40.821Z,48.22
2023-02-12T07:39:07.917Z,46.44
2023-02-12T07:41:35.559Z,47.34
2023-02-12T07:44:07.059Z,47.96
2023-02-12T07:46:35.811Z,47.20
2023-02-12T07:49:08.167Z,48.15
2023-02-12T07:51:34.916Z,47.98
2023-02-12T07:54:02.607Z,47.79
2023-02-12T07:56:30.861Z,44.90
2023-02-12T07:58:58.657Z,46.39
2023-02-12T08:01:28.540Z,47.85
2023-02-12T08:04:03.407Z,46.08
2023-02-12T08:06:31.483Z,45.22
2023-02-12T08:08:59.945Z,44.81
2023-02-12T08:11:29.693Z,45.41
2023-02-12T08:13:57.877Z,44.65
2023-02-12T08:16:27.060Z,45.10
2023-02-12T08:19:02.325Z,45.31
2023-02-12T08:21:34.511Z,44.06
2023-02-12T08:24:01.471Z,44.19
2023-02-12T08:26:36.755Z,44.21
2023-02-12T08:29:33.838Z,43.75
2023-02-12T08:32:01.852Z,42.28
2023-02-12T08:34:30.882Z,41.76
2023-02-12T08:36:57.730Z,42.22
2023-02-12T08:39:25.296Z,42.40
2023-02-12T08:41:53.927Z,42.81
2023-02-12T08:44:20.736Z,43.33
2023-02-12T08:46:48.849Z,42.78
2023-02-12T08:49:22.986Z,42.96
2023-02-12T08:51:54.002Z,42.99
2023-02-12T08:54:22.403Z,43.73
2023-02-12T08:56:49.472Z,42.60
2023-02-12T08:59:22.262Z,43.61
2023-02-12T09:01:58.928Z,42.66
2023-02-12T09:04:27.052Z,42.68
2023-02-12T09:06:53.785Z,41.93
2023-02-12T09:09:21.507Z,40.58
2023-02-12T09:11:48.323Z,41.09
2023-02-12T09:14:17.579Z,40.79
2023-02-12T09:16:45.465Z,40.88
2023-02-12T09:19:14.344Z,41.35
2023-02-12T09:21:41.745Z,41.40
2023-02-12T09:24:08.773Z,41.32
2023-02-12T09:26:35.886Z,42.40
2023-02-12T09:29:03.343Z,41.87
2023-02-12T09:31:33.387Z,42.50
2023-02-12T09:34:02.404Z,41.83
2023-02-12T09:36:32.056Z,42.01
2023-02-12T09:38:59.618Z,41.91
2023-02-12T09:41:44.826Z,42.09
2023-02-12T09:44:33.566Z,41.96
2023-02-12T09:47:03.233Z,42.04
2023-02-12T09:50:01.890Z,41.93
2023-02-12T09:52:28.790Z,41.48
2023-02-12T09:54:55.936Z,42.31
2023-02-12T09:57:25.492Z,41.77
2023-02-12T09:59:55.634Z,42.62
2023-02-12T10:02:23.441Z,42.87
2023-02-12T10:05:01.088Z,42.26
2023-02-12T10:07:43.422Z,42.63
2023-02-12T10:10:27.833Z,43.09
2023-02-12T10:13:00.139Z,43.63
2023-02-12T10:15:37.727Z,42.38
2023-02-12T10:18:34.890Z,43.22
2023-02-12T10:21:33.483Z,43.70
2023-02-12T10:24:12.148Z,43.61
2023-02-12T10:26:43.646Z,42.85
2023-02-12T10:29:25.003Z,42.47
2023-02-12T10:32:00.664Z,43.41
2023-02-12T10:34:32.463Z,43.19
2023-02-12T10:37:34.632Z,44.06
2023-02-12T10:40:29.250Z,42.65
2023-02-12T10:42:56.376Z,43.58
2023-02-12T10:45:32.322Z,43.62
2023-02-12T10:48:20.849Z,43.07
2023-02-12T10:50:50.560Z,43.57
2023-02-12T10:53:22.794Z,43.30
2023-02-12T10:56:12.161Z,43.14
2023-02-12T10:58:57.936Z,43.72
2023-02-12T11:01:33.563Z,43.27
2023-02-12T11:04:01.417Z,42.64
2023-02-12T11:06:30.117Z,43.79
2023-02-12T11:08:58.372Z,43.12
2023-02-12T11:11:27.691Z,42.93
2023-02-12T11:14:04.836Z,43.58
2023-02-12T11:16:36.806Z,44.13
2023-02-12T11:19:05.586Z,44.72
2023-02-12T11:21:33.071Z,43.78
2023-02-12T11:24:29.468Z,43.61
2023-02-12T11:27:24.959Z,45.16
2023-02-12T11:30:17.983Z,44.88
2023-02-12T11:32:45.226Z,43.55
2023-02-12T11:35:16.771Z,43.63
2023-02-12T11:37:44.518Z,43.76
2023-02-12T11:40:17.018Z,44.60
2023-02-12T11:42:46.141Z,44.23
2023-02-12T11:45:17.464Z,43.84
2023-02-12T11:47:44.515Z,43.61
2023-02-12T11:50:26.105Z,43.80
2023-02-12T11:52:54.482Z,43.89
2023-02-12T11:55:23.744Z,43.76
2023-02-12T11:58:05.773Z,43.82
2023-02-12T12:00:37.840Z,44.14
2023-02-12T12:03:45.625Z,43.74
2023-02-12T12:06:29.837Z,44.37
2023-02-12T12:09:23.527Z,45.20
2023-02-12T12:12:29.122Z,46.04
2023-02-12T12:15:10.642Z,45.23
2023-02-12T12:17:41.333Z,45.47
2023-02-12T12:20:13.725Z,44.92
2023-02-12T12:23:03.414Z,43.97
2023-02-12T12:25:46.380Z,44.71
2023-02-12T12:28:50.792Z,43.59
2023-02-12T12:31:39.363Z,44.41
2023-02-12T12:34:30.234Z,44.03
2023-02-12T12:37:06.130Z,43.89
2023-02-12T12:39:40.708Z,44.21
2023-02-12T12:42:30.486Z,44.23
2023-02-12T12:45:20.729Z,44.34
2023-02-12T12:48:26.195Z,44.44
2023-02-12T12:51:20.854Z,43.39
2023-02-12T12:53:51.925Z,43.76
2023-02-12T12:56:50.445Z,43.86
2023-02-12T12:59:26.294Z,44.55
2023-02-12T13:01:59.852Z,44.12
2023-02-12T13:04:52.638Z,44.92
2023-02-12T13:07:40.629Z,43.86
2023-02-12T13:10:26.468Z,43.80
2023-02-12T13:13:05.446Z,43.21
2023-02-12T13:16:02.558Z,43.87
2023-02-12T13:18:51.156Z,43.59
2023-02-12T13:21:45.706Z,43.70
2023-02-12T13:24:29.337Z,43.73
2023-02-12T13:26:58.239Z,44.09
2023-02-12T13:29:28.044Z,44.27
2023-02-12T13:32:00.628Z,44.00
2023-02-12T13:34:27.529Z,43.41
2023-02-12T13:36:54.269Z,44.16
2023-02-12T13:39:38.090Z,43.66
2023-02-12T13:42:07.666Z,43.52
2023-02-12T13:44:37.002Z,42.82
2023-02-12T13:47:14.154Z,42.87
2023-02-12T13:50:13.056Z,43.28
2023-02-12T13:53:07.993Z,42.85
2023-02-12T13:56:03.974Z,42.95
2023-02-12T13:58:38.145Z,43.09
2023-02-12T14:01:04.990Z,43.39
2023-02-12T14:03:31.775Z,43.00
2023-02-12T14:06:16.863Z,42.34
2023-02-12T14:09:09.027Z,42.84
2023-02-12T14:11:51.805Z,43.17
2023-02-12T14:14:46.833Z,42.67
2023-02-12T14:18:15.151Z,43.25
2023-02-12T14:20:42.300Z,42.32
2023-02-12T14:23:28.512Z,42.38
2023-02-12T14:26:16.854Z,42.20
2023-02-12T14:29:06.844Z,43.08
2023-02-12T14:31:37.844Z,43.08
2023-02-12T14:34:07.784Z,43.31
2023-02-12T14:36:34.440Z,43.27
2023-02-12T14:39:19.959Z,41.62
2023-02-12T14:41:53.650Z,42.13
2023-02-12T14:44:23.182Z,42.61
2023-02-12T14:46:54.677Z,43.12
2023-02-12T14:49:52.098Z,42.96
2023-02-12T14:52:20.413Z,42.02
2023-02-12T14:54:51.020Z,42.25
2023-02-12T14:57:37.836Z,42.52
2023-02-12T15:00:16.661Z,43.11
2023-02-12T15:02:51.936Z,42.81
2023-02-12T15:05:22.485Z,43.18
2023-02-12T15:07:55.414Z,43.19
2023-02-12T15:10:24.186Z,43.21
2023-02-12T15:12:54.854Z,43.23
2023-02-12T15:15:31.387Z,43.24
2023-02-12T15:18:11.932Z,41.92
2023-02-12T15:20:48.920Z,42.43
2023-02-12T15:23:33.272Z,42.50
2023-02-12T15:26:01.785Z,42.88
2023-02-12T15:28:30.906Z,42.50
2023-02-12T15:30:58.123Z,42.19
2023-02-12T15:33:27.941Z,42.49
2023-02-12T15:35:54.960Z,41.78
2023-02-12T15:38:33.304Z,42.63
2023-02-12T15:41:01.120Z,41.89
2023-02-12T15:43:30.522Z,43.18
2023-02-12T15:45:57.552Z,42.86
2023-02-12T15:48:35.547Z,42.64
2023-02-12T15:51:33.489Z,42.93
2023-02-12T15:54:00.380Z,42.69
2023-02-12T15:56:29.911Z,43.20
2023-02-12T15:59:17.101Z,43.12
2023-02-12T16:02:02.870Z,42.31
2023-02-12T16:04:31.482Z,42.90
2023-02-12T16:06:59.145Z,43.71
2023-02-12T16:09:37.847Z,43.20
2023-02-12T16:12:07.592Z,44.19
2023-02-12T16:14:44.836Z,43.54
2023-02-12T16:17:37.727Z,44.18
2023-02-12T16:20:15.822Z,44.79
2023-02-12T16:22:44.696Z,44.22
2023-02-12T16:25:38.863Z,44.11
2023-02-12T16:28:16.998Z,44.34
2023-02-12T16:30:44.203Z,44.87
2023-02-12T16:36:32.610Z,44.47
2023-02-12T16:39:06.216Z,45.30
2023-02-12T16:41:54.816Z,45.44
2023-02-12T16:44:26.687Z,45.99
2023-02-12T16:46:55.468Z,45.11
2023-02-12T16:49:23.564Z,45.07
2023-02-12T16:51:50.401Z,45.95
2023-02-12T16:54:46.395Z,46.53
2023-02-12T16:57:13.544Z,46.96
2023-02-12T16:59:42.434Z,46.32
2023-02-12T17:02:11.860Z,46.41
2023-02-12T17:04:38.581Z,47.02
2023-02-12T17:07:16.846Z,46.10
2023-02-12T17:09:43.536Z,46.92
2023-02-12T17:12:10.550Z,47.49
2023-02-12T17:14:37.580Z,48.07
2023-02-12T17:17:04.620Z,46.26
2023-02-12T17:19:33.013Z,46.99
2023-02-12T17:21:59.705Z,47.29
2023-02-12T17:24:33.524Z,47.83
2023-02-12T17:27:01.509Z,48.21
2023-02-12T17:29:29.214Z,49.36
2023-02-12T17:31:56.157Z,48.27
2023-02-12T17:34:23.507Z,49.14
2023-02-12T17:36:54.735Z,48.34
2023-02-12T17:39:22.031Z,47.99
2023-02-12T17:41:49.695Z,47.84
2023-02-12T17:44:17.397Z,47.57
2023-02-12T17:46:44.122Z,45.54
2023-02-12T17:49:13.621Z,45.64
2023-02-12T17:51:48.050Z,44.28
2023-02-12T17:54:15.219Z,41.63
2023-02-12T17:56:41.938Z,41.24
2023-02-12T17:59:13.667Z,40.98
2023-02-12T18:01:40.748Z,40.05
2023-02-12T18:04:07.780Z,41.19
2023-02-12T18:06:34.878Z,40.18
2023-02-12T18:09:03.093Z,39.03
2023-02-12T18:11:29.914Z,38.67
2023-02-12T18:13:57.882Z,39.12
2023-02-12T18:16:26.217Z,40.57
2023-02-12T18:18:53.437Z,41.28
2023-02-12T18:21:20.848Z,40.96
2023-02-12T18:23:48.160Z,41.45
2023-02-12T18:26:16.283Z,40.54
2023-02-12T18:28:45.122Z,40.06
2023-02-12T18:31:11.964Z,39.90
2023-02-12T18:33:39.807Z,39.01
2023-02-12T18:36:11.391Z,36.84
2023-02-12T18:38:39.391Z,37.39
2023-02-12T18:41:21.927Z,44.78
2023-02-12T18:43:51.881Z,55.80
2023-02-12T18:46:20.486Z,51.79
2023-02-12T18:48:48.477Z,52.61
2023-02-12T18:51:19.930Z,50.88
2023-02-12T18:53:47.054Z,46.14
2023-02-12T18:56:16.826Z,41.98
2023-02-12T18:58:43.534Z,40.39
2023-02-12T19:01:18.384Z,42.13
2023-02-12T19:03:45.800Z,41.70
2023-02-12T19:06:12.573Z,42.95
2023-02-12T19:08:39.738Z,42.71
2023-02-12T19:11:10.523Z,42.52
2023-02-12T19:13:38.916Z,41.86
2023-02-12T19:16:14.566Z,41.79
2023-02-12T19:18:44.535Z,42.00
2023-02-12T19:21:16.886Z,42.12
2023-02-12T19:23:44.106Z,41.14
2023-02-12T19:26:12.958Z,41.89
2023-02-12T19:28:40.361Z,42.84
2023-02-12T19:31:22.411Z,43.31
2023-02-12T19:33:50.094Z,43.71
2023-02-12T19:36:18.528Z,43.94
2023-02-12T19:38:46.366Z,43.40
2023-02-12T19:41:15.922Z,44.55
2023-02-12T19:43:42.736Z,44.43
2023-02-12T19:46:14.598Z,44.65
2023-02-12T19:48:41.329Z,43.95
2023-02-12T19:51:17.005Z,43.41
2023-02-12T19:53:44.307Z,44.02
2023-02-12T19:56:11.388Z,43.86
2023-02-12T19:58:38.484Z,43.62
2023-02-12T20:01:09.703Z,42.08
2023-02-12T20:03:38.161Z,42.73
2023-02-12T20:06:14.520Z,43.53
2023-02-12T20:08:41.595Z,41.75
2023-02-12T20:11:14.424Z,41.82
2023-02-12T20:13:42.479Z,42.18
2023-02-12T20:16:13.959Z,42.31
2023-02-12T20:18:40.649Z,41.33
2023-02-12T20:21:11.357Z,41.60
2023-02-12T20:23:49.973Z,43.50
2023-02-12T20:26:20.121Z,45.39
2023-02-12T20:28:47.592Z,43.91
2023-02-12T20:31:16.341Z,44.24
2023-02-12T20:33:54.415Z,44.77
2023-02-12T20:36:28.401Z,43.35
2023-02-12T20:39:00.604Z,42.23
2023-02-12T20:41:33.922Z,42.25
2023-02-12T20:44:04.150Z,41.47
2023-02-12T20:46:30.883Z,41.41
2023-02-12T20:48:57.606Z,41.86
2023-02-12T20:51:26.260Z,41.65
2023-02-12T20:53:53.314Z,42.08
2023-02-12T20:56:22.034Z,42.38
2023-02-12T20:58:48.854Z,43.30
2023-02-12T21:01:17.735Z,44.87
2023-02-12T21:03:45.078Z,42.89
2023-02-12T21:06:12.254Z,43.38
2023-02-12T21:08:40.030Z,42.54
2023-02-12T21:11:12.169Z,42.06
2023-02-12T21:13:39.427Z,43.27
2023-02-12T21:16:08.325Z,42.32
2023-02-12T21:18:35.676Z,42.37
2023-02-12T21:21:05.279Z,42.29
2023-02-12T21:23:33.090Z,41.86
2023-02-12T21:26:13.107Z,41.99
2023-02-12T21:28:41.107Z,41.43
2023-02-12T21:31:15.754Z,41.33
2023-02-12T21:33:43.120Z,41.38
2023-02-12T21:36:15.126Z,41.46
2023-02-12T21:38:44.479Z,41.31
2023-02-12T21:41:40.920Z,41.43
2023-02-12T21:44:11.445Z,42.44
2023-02-12T21:46:38.200Z,41.57
2023-02-12T21:49:07.327Z,40.84
2023-02-12T21:51:36.590Z,41.21
2023-02-12T21:54:08.025Z,40.53
2023-02-12T21:56:40.907Z,39.29
2023-02-12T21:59:07.821Z,39.50
2023-02-12T22:01:35.590Z,38.26
2023-02-12T22:04:03.876Z,39.35
2023-02-12T22:06:30.707Z,38.98
2023-02-12T22:09:04.602Z,39.80
2023-02-12T22:11:31.686Z,38.78
2023-02-12T22:13:58.764Z,39.53
2023-02-12T22:16:28.445Z,39.51
2023-02-12T22:18:56.836Z,39.58
2023-02-12T22:21:24.140Z,40.43
2023-02-12T22:23:52.926Z,41.73
2023-02-12T22:26:24.232Z,42.90
2023-02-12T22:28:56.043Z,42.05
2023-02-12T22:31:28.206Z,40.47
2023-02-12T22:33:57.855Z,40.52
2023-02-12T22:36:24.695Z,40.51
2023-02-12T22:38:52.595Z,41.54
2023-02-12T22:41:19.471Z,41.32
2023-02-12T22:43:47.562Z,42.13
2023-02-12T22:46:14.494Z,42.93
2023-02-12T22:48:42.273Z,42.51
2023-02-12T22:51:31.307Z,42.93
2023-02-12T22:53:58.341Z,43.63
2023-02-12T22:56:25.505Z,43.70
2023-02-12T22:58:59.691Z,42.22
2023-02-12T23:03:53.796Z,42.14
2023-02-12T23:06:22.454Z,42.65
2023-02-12T23:08:56.626Z,43.03
2023-02-12T23:11:26.660Z,43.38
2023-02-12T23:13:53.910Z,42.64
2023-02-12T23:16:21.062Z,43.86
2023-02-12T23:18:48.142Z,43.48
2023-02-12T23:21:15.123Z,42.81
2023-02-12T23:23:41.898Z,43.06
2023-02-12T23:26:14.156Z,43.14
2023-02-12T23:28:41.956Z,43.41
2023-02-12T23:31:09.145Z,43.68
2023-02-12T23:33:38.775Z,44.04
2023-02-12T23:36:06.728Z,43.85
2023-02-12T23:38:33.474Z,44.10
2023-02-12T23:41:00.492Z,43.82
2023-02-12T23:43:28.573Z,43.76
2023-02-12T23:45:55.613Z,44.83
2023-02-12T23:48:22.402Z,43.87
2023-02-12T23:50:50.028Z,44.08
2023-02-12T23:53:16.989Z,44.93
2023-02-12T23:55:43.755Z,44.37
2023-02-12T23:58:10.746Z,44.39
